sensor_id;sensor_type;location;lat;lon;timestamp;pressure;altitude;pressure_sealevel;temperature;humidity
57048;BME280;42934;54.294;18.598;2022-12-07T00:00:08;100004.19;;;2.57;87.10
57048;BME280;42934;54.294;18.598;2022-12-07T00:02:58;100007.63;;;2.58;87.34
57048;BME280;42934;54.294;18.598;2022-12-07T00:05:27;100002.44;;;2.58;86.97
57048;BME280;42934;54.294;18.598;2022-12-07T00:07:58;99995.53;;;2.58;87.19
57048;BME280;42934;54.294;18.598;2022-12-07T00:10:27;99998.97;;;2.60;86.91
57048;BME280;42934;54.294;18.598;2022-12-07T00:12:56;99999.81;;;2.61;86.53
57048;BME280;42934;54.294;18.598;2022-12-07T00:15:27;99988.59;;;2.59;86.48
57048;BME280;42934;54.294;18.598;2022-12-07T00:17:56;99986.06;;;2.57;86.75
57048;BME280;42934;54.294;18.598;2022-12-07T00:20:25;99986.94;;;2.56;86.49
57048;BME280;42934;54.294;18.598;2022-12-07T00:22:55;99988.59;;;2.60;86.66
57048;BME280;42934;54.294;18.598;2022-12-07T00:25:24;99986.00;;;2.60;86.98
57048;BME280;42934;54.294;18.598;2022-12-07T00:27:53;99975.66;;;2.59;86.90
57048;BME280;42934;54.294;18.598;2022-12-07T00:30:25;99984.28;;;2.61;86.86
57048;BME280;42934;54.294;18.598;2022-12-07T00:32:55;99973.94;;;2.58;86.46
57048;BME280;42934;54.294;18.598;2022-12-07T00:35:24;99973.19;;;2.48;86.47
57048;BME280;42934;54.294;18.598;2022-12-07T00:37:53;99979.28;;;2.42;86.82
57048;BME280;42934;54.294;18.598;2022-12-07T00:40:22;99977.56;;;2.43;87.18
57048;BME280;42934;54.294;18.598;2022-12-07T00:42:52;99974.09;;;2.44;86.75
57048;BME280;42934;54.294;18.598;2022-12-07T00:45:21;99978.44;;;2.42;87.46
57048;BME280;42934;54.294;18.598;2022-12-07T00:47:51;99974.09;;;2.44;87.35
57048;BME280;42934;54.294;18.598;2022-12-07T00:50:20;99976.66;;;2.44;87.08
57048;BME280;42934;54.294;18.598;2022-12-07T00:52:50;99981.84;;;2.45;86.70
57048;BME280;42934;54.294;18.598;2022-12-07T00:55:19;99973.19;;;2.48;86.90
57048;BME280;42934;54.294;18.598;2022-12-07T00:57:48;99969.72;;;2.49;86.92
57048;BME280;42934;54.294;18.598;2022-12-07T01:00:17;99968.88;;;2.48;87.22
57048;BME280;42934;54.294;18.598;2022-12-07T01:02:47;99964.59;;;2.44;86.94
57048;BME280;42934;54.294;18.598;2022-12-07T01:05:18;99959.38;;;2.47;86.58
57048;BME280;42934;54.294;18.598;2022-12-07T01:07:47;99957.63;;;2.49;87.07
57048;BME280;42934;54.294;18.598;2022-12-07T01:10:16;99962.78;;;2.49;86.80
57048;BME280;42934;54.294;18.598;2022-12-07T01:12:46;99953.31;;;2.50;87.14
57048;BME280;42934;54.294;18.598;2022-12-07T01:15:15;99959.38;;;2.47;87.13
57048;BME280;42934;54.294;18.598;2022-12-07T01:17:44;99951.59;;;2.49;87.07
57048;BME280;42934;54.294;18.598;2022-12-07T01:20:14;99943.84;;;2.47;87.10
57048;BME280;42934;54.294;18.598;2022-12-07T01:22:45;99946.44;;;2.46;87.22
57048;BME280;42934;54.294;18.598;2022-12-07T01:25:14;99941.28;;;2.44;87.57
57048;BME280;42934;54.294;18.598;2022-12-07T01:27:44;99941.31;;;2.40;87.39
57048;BME280;42934;54.294;18.598;2022-12-07T01:30:14;99944.75;;;2.40;87.44
57048;BME280;42934;54.294;18.598;2022-12-07T01:32:43;99937.13;;;2.30;87.80
57048;BME280;42934;54.294;18.598;2022-12-07T01:35:12;99931.16;;;2.21;87.88
57048;BME280;42934;54.294;18.598;2022-12-07T01:37:41;99928.63;;;2.15;88.69
57048;BME280;42934;54.294;18.598;2022-12-07T01:40:13;99925.91;;;2.26;88.31
57048;BME280;42934;54.294;18.598;2022-12-07T01:42:42;99920.75;;;2.24;88.56
57048;BME280;42934;54.294;18.598;2022-12-07T01:45:36;99931.13;;;2.24;88.51
57048;BME280;42934;54.294;18.598;2022-12-07T01:48:06;99919.03;;;2.25;88.36
57048;BME280;42934;54.294;18.598;2022-12-07T01:50:36;99927.75;;;2.18;88.64
57048;BME280;42934;54.294;18.598;2022-12-07T01:53:09;99933.00;;;2.10;89.25
57048;BME280;42934;54.294;18.598;2022-12-07T01:55:43;99930.38;;;2.12;89.58
57048;BME280;42934;54.294;18.598;2022-12-07T01:58:14;99921.75;;;2.13;89.25
57048;BME280;42934;54.294;18.598;2022-12-07T02:00:44;99924.34;;;2.11;89.50
57048;BME280;42934;54.294;18.598;2022-12-07T02:03:17;99924.41;;;2.05;90.15
57048;BME280;42934;54.294;18.598;2022-12-07T02:05:47;99924.44;;;2.02;90.23
57048;BME280;42934;54.294;18.598;2022-12-07T02:08:18;99914.91;;;2.05;90.43
57048;BME280;42934;54.294;18.598;2022-12-07T02:10:49;99916.56;;;2.11;90.42
57048;BME280;42934;54.294;18.598;2022-12-07T02:13:21;99911.47;;;2.07;90.77
57048;BME280;42934;54.294;18.598;2022-12-07T02:16:14;99907.97;;;2.08;90.76
57048;BME280;42934;54.294;18.598;2022-12-07T02:18:56;99897.63;;;2.09;90.92
57048;BME280;42934;54.294;18.598;2022-12-07T02:21:36;99903.59;;;2.16;90.77
57048;BME280;42934;54.294;18.598;2022-12-07T02:24:31;99893.22;;;2.16;90.68
57048;BME280;42934;54.294;18.598;2022-12-07T02:27:22;99886.34;;;2.13;91.56
57048;BME280;42934;54.294;18.598;2022-12-07T02:30:01;99888.81;;;2.25;90.97
57048;BME280;42934;54.294;18.598;2022-12-07T02:32:41;99888.81;;;2.25;91.10
57048;BME280;42934;54.294;18.598;2022-12-07T02:35:15;99879.25;;;2.29;90.82
57048;BME280;42934;54.294;18.598;2022-12-07T02:37:54;99875.78;;;2.32;91.09
57048;BME280;42934;54.294;18.598;2022-12-07T02:40:33;99870.56;;;2.35;90.50
57048;BME280;42934;54.294;18.598;2022-12-07T02:43:08;99867.13;;;2.34;90.22
57048;BME280;42934;54.294;18.598;2022-12-07T02:45:42;99864.56;;;2.33;90.76
57048;BME280;42934;54.294;18.598;2022-12-07T02:48:14;99864.72;;;2.19;91.07
57048;BME280;42934;54.294;18.598;2022-12-07T02:50:47;99855.97;;;2.27;90.81
57048;BME280;42934;54.294;18.598;2022-12-07T02:53:34;99867.28;;;2.19;91.11
57048;BME280;42934;54.294;18.598;2022-12-07T02:56:07;99855.19;;;2.21;91.46
57048;BME280;42934;54.294;18.598;2022-12-07T02:58:50;99855.94;;;2.29;91.42
57048;BME280;42934;54.294;18.598;2022-12-07T03:01:30;99855.88;;;2.38;90.65
57048;BME280;42934;54.294;18.598;2022-12-07T03:04:14;99851.59;;;2.31;91.29
57048;BME280;42934;54.294;18.598;2022-12-07T03:06:56;99842.91;;;2.35;90.99
57048;BME280;42934;54.294;18.598;2022-12-07T03:09:32;99849.94;;;2.27;91.38
57048;BME280;42934;54.294;18.598;2022-12-07T03:12:09;99840.53;;;2.18;91.12
57048;BME280;42934;54.294;18.598;2022-12-07T03:14:47;99838.03;;;2.11;91.97
57048;BME280;42934;54.294;18.598;2022-12-07T03:17:22;99836.16;;;2.23;92.16
57048;BME280;42934;54.294;18.598;2022-12-07T03:19:58;99838.78;;;2.22;92.09
57048;BME280;42934;54.294;18.598;2022-12-07T03:22:31;99838.69;;;2.28;91.96
57048;BME280;42934;54.294;18.598;2022-12-07T03:25:05;99831.78;;;2.30;91.69
57048;BME280;42934;54.294;18.598;2022-12-07T03:27:39;99837.00;;;2.25;91.79
57048;BME280;42934;54.294;18.598;2022-12-07T03:30:12;99833.59;;;2.20;91.99
57048;BME280;42934;54.294;18.598;2022-12-07T03:32:47;99826.66;;;2.24;92.10
57048;BME280;42934;54.294;18.598;2022-12-07T03:35:21;99832.81;;;2.15;92.75
57048;BME280;42934;54.294;18.598;2022-12-07T03:37:55;99830.31;;;2.08;92.86
57048;BME280;42934;54.294;18.598;2022-12-07T03:40:32;99831.13;;;2.11;93.56
57048;BME280;42934;54.294;18.598;2022-12-07T03:43:04;99829.38;;;2.13;92.98
57048;BME280;42934;54.294;18.598;2022-12-07T03:45:40;99821.56;;;2.16;92.81
57048;BME280;42934;54.294;18.598;2022-12-07T03:48:19;99816.28;;;2.25;93.05
57048;BME280;42934;54.294;18.598;2022-12-07T03:50:54;99818.91;;;2.24;92.76
57048;BME280;42934;54.294;18.598;2022-12-07T03:53:31;99812.03;;;2.21;92.40
57048;BME280;42934;54.294;18.598;2022-12-07T03:56:04;99811.13;;;2.22;92.69
57048;BME280;42934;54.294;18.598;2022-12-07T03:58:33;99805.91;;;2.25;92.89
57048;BME280;42934;54.294;18.598;2022-12-07T04:01:03;99799.88;;;2.23;92.97
57048;BME280;42934;54.294;18.598;2022-12-07T04:03:34;99795.56;;;2.27;92.65
57048;BME280;42934;54.294;18.598;2022-12-07T04:06:03;99793.78;;;2.31;92.25
57048;BME280;42934;54.294;18.598;2022-12-07T04:08:33;99793.00;;;2.24;92.27
57048;BME280;42934;54.294;18.598;2022-12-07T04:11:02;99780.81;;;2.29;92.26
57048;BME280;42934;54.294;18.598;2022-12-07T04:13:31;99784.38;;;2.22;92.37
57048;BME280;42934;54.294;18.598;2022-12-07T04:16:21;99775.81;;;2.18;92.82
57048;BME280;42934;54.294;18.598;2022-12-07T04:18:52;99775.69;;;2.27;92.52
57048;BME280;42934;54.294;18.598;2022-12-07T04:21:21;99775.72;;;2.23;92.91
57048;BME280;42934;54.294;18.598;2022-12-07T04:23:50;99772.28;;;2.22;92.47
57048;BME280;42934;54.294;18.598;2022-12-07T04:26:19;99779.13;;;2.28;92.37
57048;BME280;42934;54.294;18.598;2022-12-07T04:28:49;99776.50;;;2.31;92.61
57048;BME280;42934;54.294;18.598;2022-12-07T04:31:18;99775.59;;;2.32;92.15
57048;BME280;42934;54.294;18.598;2022-12-07T04:33:47;99772.25;;;2.27;91.99
57048;BME280;42934;54.294;18.598;2022-12-07T04:36:18;99780.91;;;2.24;92.53
57048;BME280;42934;54.294;18.598;2022-12-07T04:38:48;99773.25;;;2.15;92.94
57048;BME280;42934;54.294;18.598;2022-12-07T04:41:17;99774.91;;;2.19;93.07
57048;BME280;42934;54.294;18.598;2022-12-07T04:43:46;99768.03;;;2.17;93.14
57048;BME280;42934;54.294;18.598;2022-12-07T04:46:15;99762.00;;;2.18;92.74
57048;BME280;42934;54.294;18.598;2022-12-07T04:48:45;99761.06;;;2.22;93.07
57048;BME280;42934;54.294;18.598;2022-12-07T04:51:14;99760.13;;;2.27;92.87
57048;BME280;42934;54.294;18.598;2022-12-07T04:53:46;99762.69;;;2.29;92.55
57048;BME280;42934;54.294;18.598;2022-12-07T04:56:15;99761.75;;;2.36;92.15
57048;BME280;42934;54.294;18.598;2022-12-07T04:58:46;99758.31;;;2.34;92.72
57048;BME280;42934;54.294;18.598;2022-12-07T05:01:15;99757.47;;;2.32;92.70
57048;BME280;42934;54.294;18.598;2022-12-07T05:03:45;99758.31;;;2.36;92.86
57048;BME280;42934;54.294;18.598;2022-12-07T05:06:15;99742.72;;;2.39;92.71
57048;BME280;42934;54.294;18.598;2022-12-07T05:08:45;99747.81;;;2.43;91.84
57048;BME280;42934;54.294;18.598;2022-12-07T05:11:15;99740.00;;;2.46;92.01
57048;BME280;42934;54.294;18.598;2022-12-07T05:13:59;99744.38;;;2.43;92.11
57048;BME280;42934;54.294;18.598;2022-12-07T05:16:29;99739.19;;;2.43;92.81
57048;BME280;42934;54.294;18.598;2022-12-07T05:18:59;99740.84;;;2.50;92.34
57048;BME280;42934;54.294;18.598;2022-12-07T05:21:28;99738.25;;;2.47;92.85
57048;BME280;42934;54.294;18.598;2022-12-07T05:23:59;99738.31;;;2.44;92.49
57048;BME280;42934;54.294;18.598;2022-12-07T05:26:28;99740.84;;;2.47;92.94
57048;BME280;42934;54.294;18.598;2022-12-07T05:28:58;99736.59;;;2.43;92.94
57048;BME280;42934;54.294;18.598;2022-12-07T05:31:27;99740.09;;;2.40;93.58
57048;BME280;42934;54.294;18.598;2022-12-07T05:33:57;99735.75;;;2.41;93.37
57048;BME280;42934;54.294;18.598;2022-12-07T05:36:26;99729.63;;;2.48;93.49
57048;BME280;42934;54.294;18.598;2022-12-07T05:38:58;99731.47;;;2.40;93.22
57048;BME280;42934;54.294;18.598;2022-12-07T05:41:27;99727.88;;;2.50;93.06
57048;BME280;42934;54.294;18.598;2022-12-07T05:44:14;99731.28;;;2.54;92.91
57048;BME280;42934;54.294;18.598;2022-12-07T05:46:43;99730.41;;;2.55;93.00
57048;BME280;42934;54.294;18.598;2022-12-07T05:49:12;99728.75;;;2.49;93.58
57048;BME280;42934;54.294;18.598;2022-12-07T05:51:41;99720.88;;;2.55;93.29
57048;BME280;42934;54.294;18.598;2022-12-07T05:54:12;99719.97;;;2.59;93.05
57048;BME280;42934;54.294;18.598;2022-12-07T05:56:41;99724.22;;;2.65;93.13
57048;BME280;42934;54.294;18.598;2022-12-07T05:59:10;99721.88;;;2.48;92.86
57048;BME280;42934;54.294;18.598;2022-12-07T06:01:53;99712.31;;;2.52;93.35
57048;BME280;42934;54.294;18.598;2022-12-07T06:04:24;99710.47;;;2.58;92.98
57048;BME280;42934;54.294;18.598;2022-12-07T06:06:53;99719.97;;;2.58;93.01
57048;BME280;42934;54.294;18.598;2022-12-07T06:09:26;99722.56;;;2.59;93.17
57048;BME280;42934;54.294;18.598;2022-12-07T06:11:55;99720.72;;;2.66;92.71
57048;BME280;42934;54.294;18.598;2022-12-07T06:14:48;99714.66;;;2.68;92.06
57048;BME280;42934;54.294;18.598;2022-12-07T06:17:17;99711.44;;;2.51;92.52
57048;BME280;42934;54.294;18.598;2022-12-07T06:19:46;99711.44;;;2.51;92.55
57048;BME280;42934;54.294;18.598;2022-12-07T06:22:15;99707.19;;;2.47;92.19
57048;BME280;42934;54.294;18.598;2022-12-07T06:24:46;99697.59;;;2.54;91.41
57048;BME280;42934;54.294;18.598;2022-12-07T06:27:16;99701.84;;;2.58;91.07
57048;BME280;42934;54.294;18.598;2022-12-07T06:29:45;99700.88;;;2.65;91.12
57048;BME280;42934;54.294;18.598;2022-12-07T06:32:14;99702.75;;;2.55;90.23
57048;BME280;42934;54.294;18.598;2022-12-07T06:34:44;99689.88;;;2.49;90.30
57048;BME280;42934;54.294;18.598;2022-12-07T06:37:14;99688.03;;;2.56;90.25
57048;BME280;42934;54.294;18.598;2022-12-07T06:39:43;99685.50;;;2.53;89.83
57048;BME280;42934;54.294;18.598;2022-12-07T06:42:14;99683.16;;;2.39;88.65
57048;BME280;42934;54.294;18.598;2022-12-07T06:44:44;99690.03;;;2.40;89.11
57048;BME280;42934;54.294;18.598;2022-12-07T06:47:13;99691.81;;;2.35;88.33
57048;BME280;42934;54.294;18.598;2022-12-07T06:50:02;99691.72;;;2.41;88.53
57048;BME280;42934;54.294;18.598;2022-12-07T06:52:32;99687.34;;;2.46;88.86
57048;BME280;42934;54.294;18.598;2022-12-07T06:55:02;99685.81;;;2.33;87.94
57048;BME280;42934;54.294;18.598;2022-12-07T06:57:32;99685.72;;;2.39;88.49
57048;BME280;42934;54.294;18.598;2022-12-07T07:00:02;99692.47;;;2.50;88.63
57048;BME280;42934;54.294;18.598;2022-12-07T07:02:32;99692.44;;;2.52;88.24
57048;BME280;42934;54.294;18.598;2022-12-07T07:05:01;99684.69;;;2.50;88.11
57048;BME280;42934;54.294;18.598;2022-12-07T07:07:31;99688.13;;;2.51;87.60
57048;BME280;42934;54.294;18.598;2022-12-07T07:10:20;99689.03;;;2.50;87.81
57048;BME280;42934;54.294;18.598;2022-12-07T07:12:51;99680.56;;;2.39;87.68
57048;BME280;42934;54.294;18.598;2022-12-07T07:15:24;99675.38;;;2.39;88.15
57048;BME280;42934;54.294;18.598;2022-12-07T07:17:53;99683.75;;;2.56;88.23
57048;BME280;42934;54.294;18.598;2022-12-07T07:20:23;99681.09;;;2.59;88.11
57048;BME280;42934;54.294;18.598;2022-12-07T07:22:54;99687.19;;;2.55;87.44
57048;BME280;42934;54.294;18.598;2022-12-07T07:25:25;99675.13;;;2.54;87.98
57048;BME280;42934;54.294;18.598;2022-12-07T07:27:55;99677.66;;;2.57;87.59
57048;BME280;42934;54.294;18.598;2022-12-07T07:30:25;99687.19;;;2.55;87.77
57048;BME280;42934;54.294;18.598;2022-12-07T07:32:57;99680.25;;;2.57;87.91
57048;BME280;42934;54.294;18.598;2022-12-07T07:35:27;99682.00;;;2.57;87.67
57048;BME280;42934;54.294;18.598;2022-12-07T07:37:56;99686.22;;;2.62;87.74
57048;BME280;42934;54.294;18.598;2022-12-07T07:40:27;99683.66;;;2.62;87.81
57048;BME280;42934;54.294;18.598;2022-12-07T07:42:58;99681.84;;;2.64;87.29
57048;BME280;42934;54.294;18.598;2022-12-07T07:45:27;99694.06;;;2.59;87.34
57048;BME280;42934;54.294;18.598;2022-12-07T07:47:57;99686.19;;;2.64;87.67
57048;BME280;42934;54.294;18.598;2022-12-07T07:50:26;99686.19;;;2.65;87.60
57048;BME280;42934;54.294;18.598;2022-12-07T07:52:57;99682.69;;;2.66;87.25
57048;BME280;42934;54.294;18.598;2022-12-07T07:55:26;99677.56;;;2.63;87.27
57048;BME280;42934;54.294;18.598;2022-12-07T07:57:57;99678.41;;;2.65;87.53
57048;BME280;42934;54.294;18.598;2022-12-07T08:00:26;99676.78;;;2.58;87.47
57048;BME280;42934;54.294;18.598;2022-12-07T08:02:55;99658.69;;;2.57;87.38
57048;BME280;42934;54.294;18.598;2022-12-07T08:05:25;99668.09;;;2.61;87.36
57048;BME280;42934;54.294;18.598;2022-12-07T08:07:54;99664.88;;;2.48;87.57
57048;BME280;42934;54.294;18.598;2022-12-07T08:10:24;99655.41;;;2.44;87.93
57048;BME280;42934;54.294;18.598;2022-12-07T08:12:53;99663.38;;;2.32;87.86
57048;BME280;42934;54.294;18.598;2022-12-07T08:15:44;99659.91;;;2.33;88.63
57048;BME280;42934;54.294;18.598;2022-12-07T08:18:14;99666.72;;;2.40;88.87
57048;BME280;42934;54.294;18.598;2022-12-07T08:20:43;99668.47;;;2.38;89.00
57048;BME280;42934;54.294;18.598;2022-12-07T08:23:13;99658.88;;;2.44;89.18
57048;BME280;42934;54.294;18.598;2022-12-07T08:25:43;99656.91;;;2.59;88.61
57048;BME280;42934;54.294;18.598;2022-12-07T08:28:12;99657.94;;;2.50;88.15
57048;BME280;42934;54.294;18.598;2022-12-07T08:30:42;99662.28;;;2.46;88.66
57048;BME280;42934;54.294;18.598;2022-12-07T08:33:11;99659.69;;;2.48;88.62
57048;BME280;42934;54.294;18.598;2022-12-07T08:35:41;99652.84;;;2.42;88.40
57048;BME280;42934;54.294;18.598;2022-12-07T08:38:10;99658.88;;;2.44;88.79
57048;BME280;42934;54.294;18.598;2022-12-07T08:40:39;99659.78;;;2.40;88.65
57048;BME280;42934;54.294;18.598;2022-12-07T08:43:08;99653.66;;;2.47;88.63
57048;BME280;42934;54.294;18.598;2022-12-07T08:45:42;99657.03;;;2.49;88.12
57048;BME280;42934;54.294;18.598;2022-12-07T08:48:13;99653.66;;;2.46;88.62
57048;BME280;42934;54.294;18.598;2022-12-07T08:50:45;99655.34;;;2.50;88.04
57048;BME280;42934;54.294;18.598;2022-12-07T08:53:16;99659.50;;;2.59;88.13
57048;BME280;42934;54.294;18.598;2022-12-07T08:55:46;99657.13;;;2.45;88.03
57048;BME280;42934;54.294;18.598;2022-12-07T08:58:16;99651.81;;;2.53;87.94
57048;BME280;42934;54.294;18.598;2022-12-07T09:00:46;99658.94;;;2.40;87.23
57048;BME280;42934;54.294;18.598;2022-12-07T09:03:15;99647.72;;;2.39;87.66
57048;BME280;42934;54.294;18.598;2022-12-07T09:05:45;99648.47;;;2.46;87.64
57048;BME280;42934;54.294;18.598;2022-12-07T09:08:14;99645.94;;;2.43;87.53
57048;BME280;42934;54.294;18.598;2022-12-07T09:10:44;99642.59;;;2.35;86.70
57048;BME280;42934;54.294;18.598;2022-12-07T09:13:13;99646.91;;;2.36;86.93
57048;BME280;42934;54.294;18.598;2022-12-07T09:15:43;99647.63;;;2.45;87.27
57048;BME280;42934;54.294;18.598;2022-12-07T09:18:13;99632.03;;;2.47;86.48
57048;BME280;42934;54.294;18.598;2022-12-07T09:20:43;99638.06;;;2.49;86.54
57048;BME280;42934;54.294;18.598;2022-12-07T09:23:12;99641.66;;;2.40;86.69
57048;BME280;42934;54.294;18.598;2022-12-07T09:25:41;99647.03;;;2.30;86.48
57048;BME280;42934;54.294;18.598;2022-12-07T09:28:10;99628.03;;;2.27;86.76
57048;BME280;42934;54.294;18.598;2022-12-07T09:30:45;99633.94;;;2.37;86.24
57048;BME280;42934;54.294;18.598;2022-12-07T09:33:36;99641.84;;;2.30;85.86
57048;BME280;42934;54.294;18.598;2022-12-07T09:36:06;99640.09;;;2.28;86.34
57048;BME280;42934;54.294;18.598;2022-12-07T09:38:35;99635.72;;;2.34;86.32
57048;BME280;42934;54.294;18.598;2022-12-07T09:41:06;99639.91;;;2.41;86.04
57048;BME280;42934;54.294;18.598;2022-12-07T09:43:36;99644.34;;;2.36;86.48
57048;BME280;42934;54.294;18.598;2022-12-07T09:46:14;99641.69;;;2.37;86.27
57048;BME280;42934;54.294;18.598;2022-12-07T09:48:46;99643.44;;;2.35;86.56
57048;BME280;42934;54.294;18.598;2022-12-07T09:51:19;99645.28;;;2.30;86.45
57048;BME280;42934;54.294;18.598;2022-12-07T09:53:54;99639.97;;;2.38;86.46
57048;BME280;42934;54.294;18.598;2022-12-07T09:56:24;99644.19;;;2.43;86.08
57048;BME280;42934;54.294;18.598;2022-12-07T09:58:58;99642.38;;;2.50;86.27
57048;BME280;42934;54.294;18.598;2022-12-07T10:01:30;99635.47;;;2.49;85.71
57048;BME280;42934;54.294;18.598;2022-12-07T10:04:09;99643.38;;;2.40;85.66
57048;BME280;42934;54.294;18.598;2022-12-07T10:06:40;99647.91;;;2.27;85.50
57048;BME280;42934;54.294;18.598;2022-12-07T10:09:10;99648.56;;;2.40;85.69
57048;BME280;42934;54.294;18.598;2022-12-07T10:11:59;99641.88;;;2.26;85.08
57048;BME280;42934;54.294;18.598;2022-12-07T10:14:29;99641.66;;;2.40;85.57
57048;BME280;42934;54.294;18.598;2022-12-07T10:17:37;99647.03;;;2.30;84.36
57048;BME280;42934;54.294;18.598;2022-12-07T10:20:22;99643.53;;;2.29;84.78
57048;BME280;42934;54.294;18.598;2022-12-07T10:23:00;99632.34;;;2.28;84.53
57048;BME280;42934;54.294;18.598;2022-12-07T10:25:31;99624.59;;;2.27;84.47
57048;BME280;42934;54.294;18.598;2022-12-07T10:28:10;99627.22;;;2.25;83.95
57048;BME280;42934;54.294;18.598;2022-12-07T10:30:55;99619.31;;;2.33;84.78
57048;BME280;42934;54.294;18.598;2022-12-07T10:33:35;99620.97;;;2.39;84.01
57048;BME280;42934;54.294;18.598;2022-12-07T10:36:20;99617.47;;;2.41;83.94
57048;BME280;42934;54.294;18.598;2022-12-07T10:38:52;99619.13;;;2.44;84.49
57048;BME280;42934;54.294;18.598;2022-12-07T10:41:21;99629.38;;;2.52;84.11
57048;BME280;42934;54.294;18.598;2022-12-07T10:43:53;99618.91;;;2.58;84.41
57048;BME280;42934;54.294;18.598;2022-12-07T10:46:43;99619.97;;;2.47;84.22
57048;BME280;42934;54.294;18.598;2022-12-07T10:49:48;99602.78;;;2.42;84.04
57048;BME280;42934;54.294;18.598;2022-12-07T10:52:33;99602.72;;;2.45;84.40
57048;BME280;42934;54.294;18.598;2022-12-07T10:55:16;99605.16;;;2.54;84.16
57048;BME280;42934;54.294;18.598;2022-12-07T10:58:01;99603.69;;;2.39;83.86
57048;BME280;42934;54.294;18.598;2022-12-07T11:00:39;99593.38;;;2.36;83.29
57048;BME280;42934;54.294;18.598;2022-12-07T11:03:28;99595.69;;;2.52;83.82
57048;BME280;42934;54.294;18.598;2022-12-07T11:06:10;99594.75;;;2.57;83.76
57048;BME280;42934;54.294;18.598;2022-12-07T11:08:57;99595.69;;;2.52;83.51
57048;BME280;42934;54.294;18.598;2022-12-07T11:11:34;99592.22;;;2.53;83.53
57048;BME280;42934;54.294;18.598;2022-12-07T11:14:14;99584.38;;;2.57;83.28
57048;BME280;42934;54.294;18.598;2022-12-07T11:16:55;99575.59;;;2.66;83.36
57048;BME280;42934;54.294;18.598;2022-12-07T11:19:47;99585.91;;;2.67;83.30
57048;BME280;42934;54.294;18.598;2022-12-07T11:22:26;99573.97;;;2.60;82.76
57048;BME280;42934;54.294;18.598;2022-12-07T11:25:02;99573.91;;;2.63;83.25
57048;BME280;42934;54.294;18.598;2022-12-07T11:27:39;99574.81;;;2.62;82.76
57048;BME280;42934;54.294;18.598;2022-12-07T11:30:15;99569.56;;;2.65;83.22
57048;BME280;42934;54.294;18.598;2022-12-07T11:35:50;99573.06;;;2.63;83.10
57048;BME280;42934;54.294;18.598;2022-12-07T11:38:28;99560.22;;;2.55;82.76
57048;BME280;42934;54.294;18.598;2022-12-07T11:41:04;99561.00;;;2.60;82.96
57048;BME280;42934;54.294;18.598;2022-12-07T11:43:53;99553.28;;;2.56;82.86
57048;BME280;42934;54.294;18.598;2022-12-07T11:46:27;99557.63;;;2.55;82.74
57048;BME280;42934;54.294;18.598;2022-12-07T11:49:03;99550.75;;;2.54;83.15
57048;BME280;42934;54.294;18.598;2022-12-07T11:51:39;99550.13;;;2.41;82.75
57048;BME280;42934;54.294;18.598;2022-12-07T11:54:14;99550.91;;;2.45;83.11
57048;BME280;42934;54.294;18.598;2022-12-07T11:56:55;99551.94;;;2.36;82.79
57048;BME280;42934;54.294;18.598;2022-12-07T11:59:30;99546.84;;;2.30;82.36
57048;BME280;42934;54.294;18.598;2022-12-07T12:02:14;99549.56;;;2.22;82.52
57048;BME280;42934;54.294;18.598;2022-12-07T12:04:51;99557.47;;;2.13;82.40
57048;BME280;42934;54.294;18.598;2022-12-07T12:07:24;99547.16;;;2.10;82.20
57048;BME280;42934;54.294;18.598;2022-12-07T12:10:18;99548.72;;;2.22;82.16
57048;BME280;42934;54.294;18.598;2022-12-07T12:16:40;99535.69;;;2.26;82.31
57048;BME280;42934;54.294;18.598;2022-12-07T12:19:22;99534.97;;;2.18;82.22
57048;BME280;42934;54.294;18.598;2022-12-07T12:21:57;99534.06;;;2.21;82.47
57048;BME280;42934;54.294;18.598;2022-12-07T12:24:32;99531.38;;;2.27;82.38
57048;BME280;42934;54.294;18.598;2022-12-07T12:27:06;99519.13;;;2.35;82.66
57048;BME280;42934;54.294;18.598;2022-12-07T12:29:38;99527.84;;;2.31;82.62
57048;BME280;42934;54.294;18.598;2022-12-07T12:32:17;99514.09;;;2.27;82.29
57048;BME280;42934;54.294;18.598;2022-12-07T12:35:20;99509.81;;;2.23;82.59
57048;BME280;42934;54.294;18.598;2022-12-07T12:37:53;99511.38;;;2.34;82.72
57048;BME280;42934;54.294;18.598;2022-12-07T12:40:43;99504.34;;;2.40;82.08
57048;BME280;42934;54.294;18.598;2022-12-07T12:43:43;99503.44;;;2.43;82.31
57048;BME280;42934;54.294;18.598;2022-12-07T12:49:36;99495.78;;;2.38;82.02
57048;BME280;42934;54.294;18.598;2022-12-07T12:58:27;99499.16;;;2.40;82.37
57048;BME280;42934;54.294;18.598;2022-12-07T13:07:03;99480.59;;;2.17;82.48
57048;BME280;42934;54.294;18.598;2022-12-07T13:09:35;99478.66;;;2.30;82.42
57048;BME280;42934;54.294;18.598;2022-12-07T13:12:11;99469.16;;;2.28;82.67
57048;BME280;42934;54.294;18.598;2022-12-07T13:14:56;99469.09;;;2.32;82.00
57048;BME280;42934;54.294;18.598;2022-12-07T13:18:01;99467.41;;;2.31;82.25
57048;BME280;42934;54.294;18.598;2022-12-07T13:20:52;99470.06;;;2.27;82.12
57048;BME280;42934;54.294;18.598;2022-12-07T13:23:32;99463.97;;;2.30;82.09
57048;BME280;42934;54.294;18.598;2022-12-07T13:26:16;99461.38;;;2.28;81.95
57048;BME280;42934;54.294;18.598;2022-12-07T13:28:48;99470.09;;;2.24;82.02
57048;BME280;42934;54.294;18.598;2022-12-07T13:31:32;99470.91;;;2.30;82.16
57048;BME280;42934;54.294;18.598;2022-12-07T13:34:04;99468.25;;;2.31;82.34
57048;BME280;42934;54.294;18.598;2022-12-07T13:36:37;99476.16;;;2.23;81.96
57048;BME280;42934;54.294;18.598;2022-12-07T13:39:20;99464.81;;;2.31;82.14
57048;BME280;42934;54.294;18.598;2022-12-07T13:41:52;99472.53;;;2.32;82.14
57048;BME280;42934;54.294;18.598;2022-12-07T13:44:24;99467.28;;;2.37;81.90
57048;BME280;42934;54.294;18.598;2022-12-07T13:47:03;99467.25;;;2.40;82.26
57048;BME280;42934;54.294;18.598;2022-12-07T13:49:39;99456.88;;;2.40;82.15
57048;BME280;42934;54.294;18.598;2022-12-07T13:52:23;99463.88;;;2.35;82.48
57048;BME280;42934;54.294;18.598;2022-12-07T13:54:59;99462.13;;;2.37;82.27
57048;BME280;42934;54.294;18.598;2022-12-07T13:57:30;99469.03;;;2.36;82.23